createdAt,value
2023-05-12T18:50:30.499Z,76.39
2023-05-12T18:51:28.842Z,76.18
2023-05-12T18:52:29.041Z,76.39
2023-05-12T18:53:29.215Z,76.59
2023-05-12T18:54:29.379Z,76.28
2023-05-12T18:55:30.551Z,76.99
2023-05-12T18:56:28.810Z,77.50
2023-05-12T18:57:29.893Z,77.70
2023-05-12T18:58:29.114Z,77.29
2023-05-12T18:59:29.361Z,77.50
2023-05-12T19:00:29.540Z,77.80
2023-05-12T19:01:28.744Z,77.70
2023-05-12T19:02:28.958Z,77.80
2023-05-12T19:03:30.003Z,77.03
2023-05-12T19:04:29.202Z,77.53
2023-05-12T19:05:29.450Z,78.04
2023-05-12T19:06:29.608Z,78.34
2023-05-12T19:07:28.752Z,78.24
2023-05-12T19:08:28.963Z,78.44
2023-05-12T19:09:29.100Z,77.90
2023-05-12T19:10:29.228Z,77.53
2023-05-12T19:11:29.502Z,77.23
2023-05-12T19:12:28.525Z,77.03
2023-05-12T19:13:28.656Z,76.89
2023-05-12T19:14:28.939Z,76.62
2023-05-12T19:15:28.969Z,76.32
2023-05-12T19:16:29.162Z,76.62
2023-05-12T19:17:29.324Z,77.13
2023-05-12T19:18:29.413Z,77.33
2023-05-12T19:19:28.527Z,77.67
2023-05-12T19:20:28.737Z,77.94
2023-05-12T19:21:28.853Z,77.87
2023-05-12T19:22:28.993Z,77.77
2023-05-12T19:23:29.162Z,78.17
2023-05-12T19:24:30.276Z,78.38
2023-05-12T19:25:30.456Z,78.68
2023-05-12T19:26:28.623Z,79.29
2023-05-12T19:27:28.750Z,79.59
2023-05-12T19:28:28.917Z,79.69
2023-05-12T19:29:29.082Z,79.39
2023-05-12T19:30:29.215Z,79.69
2023-05-12T19:31:28.482Z,79.49
2023-05-12T19:32:28.621Z,79.39
2023-05-12T19:33:29.679Z,79.49
2023-05-12T19:34:29.828Z,79.49
2023-05-12T19:35:29.059Z,79.39
2023-05-12T19:36:28.206Z,79.39
2023-05-12T19:37:28.407Z,79.63
2023-05-12T19:38:28.547Z,79.93
2023-05-12T19:39:28.719Z,79.83
2023-05-12T19:40:29.867Z,80.13
2023-05-12T19:41:29.017Z,80.64
2023-05-12T19:42:29.138Z,80.68
2023-05-12T19:43:29.389Z,80.78
2023-05-12T19:44:30.119Z,80.98
2023-05-12T19:45:29.670Z,80.98
2023-05-12T19:46:28.838Z,80.88
2023-05-12T19:47:29.998Z,80.98
2023-05-12T19:48:28.310Z,81.29
2023-05-12T19:49:28.330Z,81.29
2023-05-12T19:50:28.518Z,81.18
2023-05-12T19:51:28.648Z,80.78
2023-05-12T19:52:28.871Z,80.68
2023-05-12T19:53:29.952Z,80.68
2023-05-12T19:54:28.334Z,80.98
2023-05-12T19:55:28.554Z,80.68
2023-05-12T19:56:28.772Z,80.47
2023-05-12T19:57:29.674Z,80.27
2023-05-12T19:58:28.987Z,80.38
2023-05-12T19:59:28.373Z,80.38
2023-05-12T20:00:28.236Z,80.07
2023-05-12T20:01:28.233Z,80.38
2023-05-12T20:02:29.571Z,80.78
2023-05-12T20:03:29.474Z,80.98
2023-05-12T20:04:29.639Z,81.09
2023-05-12T20:05:28.744Z,80.98
2023-05-12T20:06:28.003Z,80.78
2023-05-12T20:07:28.124Z,80.47
2023-05-12T20:08:29.284Z,80.38
2023-05-12T20:09:28.450Z,80.27
2023-05-12T20:10:28.609Z,80.38
2023-05-12T20:11:27.704Z,80.38
2023-05-12T20:12:27.958Z,80.78
2023-05-12T20:13:28.053Z,81.69
2023-05-12T20:14:29.187Z,81.18
2023-05-12T20:15:28.343Z,81.79
2023-05-12T20:16:29.479Z,82.10
2023-05-12T20:17:28.636Z,82.44
2023-05-12T20:18:27.880Z,82.84
2023-05-12T20:19:28.870Z,82.84
2023-05-12T20:20:29.097Z,82.95
2023-05-12T20:21:29.239Z,83.04
2023-05-12T20:22:28.442Z,83.25
2023-05-12T20:23:28.658Z,83.55
2023-05-12T20:24:29.691Z,83.76
2023-05-12T20:25:27.827Z,83.65
2023-05-12T20:26:27.978Z,83.35
2023-05-12T20:27:29.140Z,83.04
2023-05-12T20:28:29.292Z,82.78
2023-05-12T20:29:28.507Z,82.89
2023-05-12T20:30:27.565Z,82.89
2023-05-12T20:31:27.801Z,82.98
2023-05-12T20:32:27.906Z,82.89
2023-05-12T20:33:28.070Z,82.89
2023-05-12T20:34:29.142Z,83.29
2023-05-12T20:35:28.298Z,83.59
2023-05-12T20:36:27.357Z,83.29
2023-05-12T20:37:27.486Z,82.98
2023-05-12T20:38:27.637Z,83.09
2023-05-12T20:39:27.761Z,83.49
2023-05-12T20:40:27.885Z,83.59
2023-05-12T20:41:28.070Z,83.90
2023-05-12T20:42:29.086Z,84.10
2023-05-12T20:43:29.211Z,84.10
2023-05-12T20:44:28.312Z,84.14
2023-05-12T20:45:27.542Z,84.30
2023-05-12T20:46:27.735Z,84.30
2023-05-12T20:47:27.968Z,84.44
2023-05-12T20:48:28.918Z,84.20
2023-05-12T20:49:29.058Z,84.14
2023-05-12T20:50:28.245Z,84.61
2023-05-12T20:51:28.281Z,85.11
2023-05-12T20:52:27.480Z,85.72
2023-05-12T20:53:27.651Z,85.93
2023-05-12T20:54:28.727Z,85.93
2023-05-12T20:55:27.933Z,85.93
2023-05-12T20:56:28.030Z,85.72
2023-05-12T20:57:27.137Z,85.52
2023-05-12T20:58:27.262Z,85.52
2023-05-12T20:59:27.572Z,85.86
2023-05-12T21:00:27.507Z,85.96
2023-05-12T21:01:27.721Z,86.27
2023-05-12T21:02:28.697Z,86.47
2023-05-12T21:03:27.997Z,86.27
2023-05-12T21:04:27.085Z,86.16
2023-05-12T21:05:27.308Z,86.16
2023-05-12T21:06:28.323Z,86.16
2023-05-12T21:07:28.481Z,86.27
2023-05-12T21:08:28.660Z,86.57
2023-05-12T21:09:28.756Z,86.77
2023-05-12T21:10:27.969Z,86.77
2023-05-12T21:11:28.009Z,86.47
2023-05-12T21:12:27.197Z,86.16
2023-05-12T21:13:27.357Z,85.76
2023-05-12T21:14:27.523Z,85.36
2023-05-12T21:15:27.701Z,85.15
2023-05-12T21:16:27.971Z,85.25
2023-05-12T21:17:27.984Z,85.25
2023-05-12T21:18:28.128Z,85.56
2023-05-12T21:19:28.268Z,85.86
2023-05-12T21:20:28.467Z,85.96
2023-05-12T21:21:27.612Z,86.10
2023-05-12T21:22:27.768Z,86.21
2023-05-12T21:23:26.814Z,86.21
2023-05-12T21:24:27.894Z,86.10
2023-05-12T21:25:27.109Z,86.10
2023-05-12T21:26:28.177Z,86.31
2023-05-12T21:27:27.388Z,86.41
2023-05-12T21:28:27.571Z,86.41
2023-05-12T21:29:28.634Z,86.41
2023-05-12T21:30:27.765Z,86.61
2023-05-12T21:31:26.955Z,86.82
2023-05-12T21:32:28.141Z,86.82
2023-05-12T21:33:27.287Z,87.02
2023-05-12T21:34:27.422Z,87.02
2023-05-12T21:35:27.547Z,87.32
2023-05-12T21:36:26.678Z,87.37
2023-05-12T21:37:26.775Z,87.77
2023-05-12T21:38:26.926Z,87.77
2023-05-12T21:39:28.055Z,87.67
2023-05-12T21:40:27.340Z,88.12
2023-05-12T21:41:27.427Z,88.12
2023-05-12T21:42:28.497Z,87.81
2023-05-12T21:43:26.679Z,87.40
2023-05-12T21:44:26.815Z,87.40
2023-05-12T21:45:27.962Z,87.51
2023-05-12T21:46:27.253Z,87.51
2023-05-12T21:47:27.233Z,87.40
2023-05-12T21:48:27.356Z,87.40
2023-05-12T21:49:27.453Z,87.30
2023-05-12T21:50:26.624Z,87.20
2023-05-12T21:51:27.734Z,87.10
2023-05-12T21:52:27.930Z,87.30
2023-05-12T21:53:27.077Z,87.40
2023-05-12T21:54:28.194Z,87.61
2023-05-12T21:55:26.348Z,87.51
2023-05-12T21:56:26.497Z,87.61
2023-05-12T21:57:26.689Z,87.61
2023-05-12T21:58:27.906Z,87.85
2023-05-12T21:59:27.962Z,88.06
2023-05-12T22:00:27.105Z,88.16
2023-05-12T22:01:27.342Z,88.16
2023-05-12T22:02:26.436Z,88.36
2023-05-12T22:03:26.564Z,88.36
2023-05-12T22:04:27.755Z,88.36
2023-05-12T22:05:26.886Z,88.36
2023-05-12T22:06:27.093Z,88.46
2023-05-12T22:07:28.183Z,88.46
2023-05-12T22:08:26.399Z,88.36
2023-05-12T22:09:26.530Z,88.20
2023-05-12T22:10:26.737Z,88.10
2023-05-12T22:11:27.843Z,88.20
2023-05-12T22:12:27.151Z,88.30
2023-05-12T22:13:27.155Z,88.10
2023-05-12T22:14:26.373Z,87.99
2023-05-12T22:15:27.509Z,87.29
2023-05-12T22:16:40.727Z,87.38
2023-05-12T22:17:27.937Z,87.59
2023-05-12T22:18:28.085Z,87.65
2023-05-12T22:19:26.197Z,87.45
2023-05-12T22:20:26.404Z,87.34
2023-05-12T22:21:27.500Z,87.34
2023-05-12T22:22:26.774Z,87.34
2023-05-12T22:23:26.876Z,87.04
2023-05-12T22:24:26.967Z,87.14
2023-05-12T22:25:26.159Z,87.14
2023-05-12T22:26:26.356Z,87.04
2023-05-12T22:27:27.446Z,87.04
2023-05-12T22:28:26.691Z,87.14
2023-05-12T22:29:26.804Z,87.38
2023-05-12T22:30:26.887Z,87.45
2023-05-12T22:31:27.140Z,87.34
2023-05-12T22:32:27.276Z,87.34
2023-05-12T22:33:27.382Z,87.34
2023-05-12T22:34:26.701Z,87.24
2023-05-12T22:35:26.744Z,87.24
2023-05-12T22:36:26.830Z,87.04
2023-05-12T22:37:27.009Z,87.08
2023-05-12T22:38:26.195Z,87.08
2023-05-12T22:39:26.367Z,87.18
2023-05-12T22:40:26.588Z,87.38
2023-05-12T22:41:27.703Z,87.59
2023-05-12T22:42:25.820Z,87.89
2023-05-12T22:43:25.976Z,87.99
2023-05-12T22:44:27.149Z,88.20
2023-05-12T22:45:27.311Z,88.60
2023-05-12T22:46:27.559Z,88.71
2023-05-12T22:47:27.766Z,88.81
2023-05-12T22:48:26.796Z,88.81
2023-05-12T22:49:26.957Z,88.95
2023-05-12T22:50:27.160Z,88.95
2023-05-12T22:51:27.322Z,88.81
2023-05-12T22:52:26.574Z,88.60
2023-05-12T22:53:25.695Z,88.40
2023-05-12T22:54:26.799Z,88.60
2023-05-12T22:55:27.007Z,88.85
2023-05-12T22:56:27.279Z,88.95
2023-05-12T22:57:27.379Z,89.26
2023-05-12T22:58:26.533Z,89.15
2023-05-12T22:59:26.698Z,89.26
2023-05-12T23:00:26.885Z,89.26
2023-05-12T23:01:27.078Z,89.15
2023-05-12T23:02:27.287Z,89.05
2023-05-12T23:03:27.498Z,89.15
2023-05-12T23:04:26.710Z,89.26
2023-05-12T23:05:25.780Z,89.15
2023-05-12T23:06:25.920Z,89.15
2023-05-12T23:07:27.062Z,89.20
2023-05-12T23:08:26.282Z,89.20
2023-05-12T23:09:25.692Z,89.20
2023-05-12T23:10:25.566Z,89.20
2023-05-12T23:11:26.698Z,89.20
2023-05-12T23:12:25.887Z,89.20
2023-05-12T23:13:26.070Z,89.30
2023-05-12T23:14:26.249Z,89.40
2023-05-12T23:15:26.382Z,89.40
2023-05-12T23:16:25.562Z,89.50
2023-05-12T23:17:26.742Z,89.50
2023-05-12T23:18:26.877Z,89.50
2023-05-12T23:19:26.070Z,89.61
2023-05-12T23:20:27.166Z,89.61
2023-05-12T23:21:26.278Z,89.61
2023-05-12T23:22:26.421Z,89.70
2023-05-12T23:23:26.642Z,89.81
2023-05-12T23:24:25.788Z,89.91
2023-05-12T23:25:25.992Z,90.11
2023-05-12T23:26:26.142Z,89.91
2023-05-12T23:27:26.205Z,89.70
2023-05-12T23:28:25.479Z,89.46
2023-05-12T23:29:25.595Z,89.40
2023-05-12T23:30:26.706Z,89.30
2023-05-12T23:31:26.960Z,89.40
2023-05-12T23:32:26.213Z,89.50
2023-05-12T23:33:26.397Z,89.61
2023-05-12T23:34:25.489Z,89.61
2023-05-12T23:35:26.647Z,89.91
2023-05-12T23:36:26.808Z,90.01
2023-05-12T23:37:26.242Z,90.05
2023-05-12T23:38:26.164Z,90.05
2023-05-12T23:39:25.372Z,90.05
2023-05-12T23:40:26.115Z,90.16
2023-05-12T23:41:26.278Z,90.25
2023-05-12T23:42:26.526Z,90.36
2023-05-12T23:43:25.775Z,90.36
2023-05-12T23:44:26.907Z,90.36
2023-05-12T23:45:26.066Z,90.36
2023-05-12T23:46:25.384Z,90.36
2023-05-12T23:47:25.571Z,90.36
2023-05-12T23:48:26.752Z,90.36
2023-05-12T23:49:25.957Z,90.36
2023-05-12T23:50:26.189Z,90.31
2023-05-12T23:51:26.395Z,90.36
2023-05-12T23:52:26.665Z,90.31
2023-05-12T23:53:25.789Z,90.36
2023-05-12T23:54:26.115Z,90.36
2023-05-12T23:55:26.278Z,90.31
2023-05-12T23:56:26.477Z,90.42
2023-05-12T23:57:25.732Z,90.42
2023-05-12T23:58:25.974Z,90.31
2023-05-12T23:59:25.135Z,90.56
